Time;durP1;ratioP1;P1;durP2;ratioP2;P2;SDS_P1;SDS_P2;PMS_P1;PMS_P2;Temp;Humidity;BMP_temperature;BMP_pressure;BME280_temperature;BME280_humidity;BME280_pressure;Samples;Min_cycle;Max_cycle;Signal;HPM_P1;HPM_P2
2022/05/30 00:00:11;;;;;;;12.35;2.45;;;9.50;99.90;;;;;;5141049;27;20043;-65
2022/05/30 00:02:37;;;;;;;9.27;2.50;;;9.40;99.90;;;;;;5123709;27;20035;-64
2022/05/30 00:05:03;;;;;;;10.02;2.92;;;9.30;99.90;;;;;;5114503;27;20047;-65
2022/05/30 00:07:29;;;;;;;8.95;2.20;;;9.30;99.90;;;;;;5141320;27;20039;-64
2022/05/30 00:09:54;;;;;;;7.45;2.70;;;9.20;99.90;;;;;;5108024;27;20027;-64
2022/05/30 00:12:20;;;;;;;9.95;2.50;;;9.10;99.90;;;;;;5144222;27;20114;-64
2022/05/30 00:14:45;;;;;;;9.13;2.50;;;9.00;99.90;;;;;;5139056;27;20058;-64
2022/05/30 00:17:12;;;;;;;7.57;2.45;;;9.00;99.90;;;;;;5140281;27;20472;-64
2022/05/30 00:19:39;;;;;;;10.07;2.55;;;8.90;99.90;;;;;;5121868;27;20043;-64
2022/05/30 00:22:06;;;;;;;6.88;2.45;;;8.90;99.90;;;;;;5118948;27;20156;-64
2022/05/30 00:24:33;;;;;;;9.70;2.42;;;8.90;99.90;;;;;;5140184;27;20045;-64
2022/05/30 00:26:59;;;;;;;7.28;2.00;;;8.80;99.90;;;;;;5123141;27;20054;-64
2022/05/30 00:29:27;;;;;;;7.95;2.30;;;8.90;99.90;;;;;;5121541;27;20027;-67
2022/05/30 00:31:53;;;;;;;8.82;2.15;;;8.90;99.90;;;;;;5119199;27;20044;-64
2022/05/30 00:34:20;;;;;;;6.70;1.92;;;8.90;99.90;;;;;;5119568;27;20038;-64
2022/05/30 00:36:46;;;;;;;6.75;2.20;;;8.90;99.90;;;;;;5136036;27;20030;-64
2022/05/30 00:39:11;;;;;;;6.75;2.05;;;8.90;99.90;;;;;;5130561;27;20349;-64
2022/05/30 00:41:37;;;;;;;6.15;2.00;;;8.90;99.90;;;;;;5122221;27;20115;-64
2022/05/30 00:44:03;;;;;;;8.00;2.25;;;9.00;99.90;;;;;;5135509;27;20070;-64
2022/05/30 00:46:29;;;;;;;7.95;2.00;;;9.00;99.90;;;;;;5138001;27;20477;-64
2022/05/30 00:49:02;;;;;;;6.65;1.80;;;9.10;99.90;;;;;;5138957;27;20046;-65
2022/05/30 00:51:33;;;;;;;8.48;1.63;;;9.10;99.90;;;;;;5122345;27;20030;-63
2022/05/30 00:54:01;;;;;;;6.68;1.80;;;9.20;99.90;;;;;;5143856;27;20034;-63
2022/05/30 00:56:39;;;;;;;4.53;1.42;;;9.20;99.90;;;;;;5141233;27;20083;-64
2022/05/30 00:59:05;;;;;;;5.30;1.55;;;9.20;99.90;;;;;;5118855;27;20061;-66
2022/05/30 01:01:32;;;;;;;4.13;1.50;;;9.20;99.90;;;;;;5104492;27;20365;-66
2022/05/30 01:06:47;;;;;;;5.20;1.92;;;9.30;99.90;;;;;;5136045;27;20039;-64
2022/05/30 01:09:17;;;;;;;5.85;2.00;;;9.30;99.90;;;;;;5138822;27;20480;-64
2022/05/30 01:11:46;;;;;;;8.13;1.92;;;9.20;99.90;;;;;;5122605;27;20054;-65
2022/05/30 01:14:12;;;;;;;6.55;1.92;;;9.10;99.90;;;;;;5123568;27;20463;-64
2022/05/30 01:16:37;;;;;;;4.38;1.73;;;9.10;99.90;;;;;;5122117;27;20101;-64
2022/05/30 01:19:05;;;;;;;4.80;1.52;;;9.10;99.90;;;;;;5119265;27;20057;-64
2022/05/30 01:21:52;;;;;;;5.97;1.60;;;9.00;99.90;;;;;;5121276;27;20440;-64
2022/05/30 01:24:49;;;;;;;6.70;2.25;;;9.00;99.90;;;;;;5116774;27;20043;-64
2022/05/30 01:27:41;;;;;;;8.00;1.90;;;8.90;99.90;;;;;;5104045;27;20626;-64
2022/05/30 01:30:12;;;;;;;5.93;1.80;;;8.90;99.90;;;;;;5121390;27;20462;-65
2022/05/30 01:32:37;;;;;;;8.75;1.98;;;8.80;99.90;;;;;;5142539;27;20034;-65
2022/05/30 01:35:03;;;;;;;5.85;1.90;;;8.70;99.90;;;;;;5106247;27;20432;-65
2022/05/30 01:37:29;;;;;;;7.10;2.10;;;8.70;99.90;;;;;;5120371;27;20050;-64
2022/05/30 01:39:55;;;;;;;3.88;1.80;;;8.60;99.90;;;;;;5105206;27;20144;-64
2022/05/30 01:42:21;;;;;;;7.00;2.15;;;8.60;99.90;;;;;;5138230;27;20027;-64
2022/05/30 01:44:46;;;;;;;3.65;1.48;;;8.50;99.90;;;;;;5119144;27;20478;-67
2022/05/30 01:47:12;;;;;;;8.25;1.95;;;8.50;99.90;;;;;;5140692;27;20031;-65
2022/05/30 01:49:38;;;;;;;6.55;2.10;;;8.50;99.90;;;;;;5120393;27;20042;-64
2022/05/30 01:52:04;;;;;;;9.25;2.00;;;8.40;99.90;;;;;;5117802;27;20443;-64
2022/05/30 01:54:30;;;;;;;8.90;1.70;;;8.40;99.90;;;;;;5106141;27;20100;-64
2022/05/30 01:56:56;;;;;;;5.63;2.00;;;8.40;99.90;;;;;;5138010;27;20507;-67
2022/05/30 01:59:21;;;;;;;8.35;1.98;;;8.40;99.90;;;;;;5104929;27;20034;-64
2022/05/30 02:01:47;;;;;;;5.70;2.10;;;8.50;99.90;;;;;;5140353;27;20033;-64
2022/05/30 02:04:14;;;;;;;8.05;2.03;;;8.50;99.90;;;;;;5118403;27;20038;-63
2022/05/30 02:06:40;;;;;;;4.93;2.00;;;8.50;99.90;;;;;;5121898;27;20467;-64
2022/05/30 02:09:06;;;;;;;7.22;2.15;;;8.50;99.90;;;;;;5138157;27;20035;-65
2022/05/30 02:11:33;;;;;;;9.77;2.72;;;8.50;99.90;;;;;;5138384;27;20031;-64
2022/05/30 02:13:58;;;;;;;6.95;2.28;;;8.50;99.90;;;;;;5121643;27;20054;-64
2022/05/30 02:19:09;;;;;;;5.70;1.90;;;8.60;99.90;;;;;;5119263;27;20114;-65
2022/05/30 02:21:37;;;;;;;6.65;2.05;;;8.60;99.90;;;;;;5121174;27;20130;-64
2022/05/30 02:24:04;;;;;;;6.53;1.70;;;8.70;99.90;;;;;;5119657;27;20050;-64
2022/05/30 02:26:30;;;;;;;5.82;1.80;;;8.60;99.90;;;;;;5118628;27;20066;-65
2022/05/30 02:28:56;;;;;;;6.35;1.88;;;8.60;99.90;;;;;;5136661;27;20067;-64
2022/05/30 02:31:21;;;;;;;3.75;1.60;;;8.60;99.90;;;;;;5120907;27;20064;-64
2022/05/30 02:36:40;;;;;;;;;;;8.60;99.90;;;;;;5138277;27;20045;-64
2022/05/30 02:39:10;;;;;;;3.75;1.38;;;8.60;99.90;;;;;;5118240;27;19915;-64
2022/05/30 02:41:37;;;;;;;4.90;1.50;;;8.60;99.90;;;;;;5138953;27;20043;-64
2022/05/30 02:44:03;;;;;;;5.93;1.48;;;8.50;99.90;;;;;;5118495;27;20046;-64
2022/05/30 02:46:29;;;;;;;5.90;1.42;;;8.50;99.90;;;;;;5118630;27;20119;-64
2022/05/30 02:48:55;;;;;;;4.82;1.52;;;8.50;99.90;;;;;;5118208;27;20043;-65
2022/05/30 02:51:21;;;;;;;4.25;1.75;;;8.50;99.90;;;;;;5120297;27;20027;-65
2022/05/30 02:53:47;;;;;;;7.15;2.10;;;8.50;99.90;;;;;;5120722;27;20058;-67
2022/05/30 02:56:14;;;;;;;7.07;2.10;;;8.30;99.90;;;;;;5118567;27;20035;-65
2022/05/30 02:58:39;;;;;;;5.50;1.98;;;8.30;99.90;;;;;;5117588;27;20459;-65
2022/05/30 03:01:05;;;;;;;4.85;1.85;;;8.30;99.90;;;;;;5120484;27;20092;-66
2022/05/30 03:03:31;;;;;;;5.40;1.70;;;8.30;99.90;;;;;;5121484;27;20443;-64
2022/05/30 03:05:57;;;;;;;4.18;1.60;;;8.30;99.90;;;;;;5116204;27;20073;-65
2022/05/30 03:08:22;;;;;;;5.25;1.75;;;8.20;99.90;;;;;;5119679;27;20069;-64
2022/05/30 03:10:48;;;;;;;8.07;2.35;;;8.20;99.90;;;;;;5118917;27;20047;-64
2022/05/30 03:13:14;;;;;;;8.73;2.15;;;8.10;99.90;;;;;;5118571;27;20032;-64
2022/05/30 03:15:39;;;;;;;5.30;2.28;;;8.00;99.90;;;;;;5101697;27;20084;-64
2022/05/30 03:18:06;;;;;;;7.80;2.38;;;8.00;99.90;;;;;;5121662;27;20043;-64
2022/05/30 03:20:32;;;;;;;4.40;2.10;;;8.00;99.90;;;;;;5120498;27;20062;-64
2022/05/30 03:22:58;;;;;;;7.60;2.50;;;7.90;99.90;;;;;;5117172;27;20038;-66
2022/05/30 03:25:24;;;;;;;6.25;2.58;;;7.90;99.90;;;;;;5114032;27;20301;-65
2022/05/30 03:27:52;;;;;;;8.80;2.40;;;7.90;99.90;;;;;;5118422;27;20035;-64
2022/05/30 03:30:18;;;;;;;4.45;2.10;;;7.80;99.90;;;;;;5138922;27;20043;-66
2022/05/30 03:32:44;;;;;;;10.02;2.75;;;7.80;99.90;;;;;;5138299;27;20042;-65
2022/05/30 03:35:11;;;;;;;5.75;2.00;;;7.80;99.90;;;;;;5140219;27;20035;-66
2022/05/30 03:37:38;;;;;;;7.13;2.25;;;7.80;99.90;;;;;;5117600;27;20042;-64
2022/05/30 03:40:05;;;;;;;6.55;2.30;;;7.80;99.90;;;;;;5108656;27;20530;-65
2022/05/30 03:42:31;;;;;;;5.97;2.20;;;7.80;99.90;;;;;;5137113;27;20039;-65
2022/05/30 03:44:56;;;;;;;5.28;1.65;;;7.80;99.90;;;;;;5115872;27;20129;-66
2022/05/30 03:47:22;;;;;;;7.38;2.30;;;7.90;99.90;;;;;;5121282;27;20409;-65
2022/05/30 03:49:48;;;;;;;7.13;1.88;;;7.90;99.90;;;;;;5118881;27;20042;-65
2022/05/30 03:52:14;;;;;;;5.55;2.10;;;7.90;99.90;;;;;;5136159;27;20054;-65
2022/05/30 03:54:40;;;;;;;6.18;2.28;;;7.80;99.90;;;;;;5119078;27;20065;-65
2022/05/30 03:57:05;;;;;;;4.80;1.73;;;7.80;99.90;;;;;;5117610;27;20173;-64
2022/05/30 03:59:31;;;;;;;5.65;2.05;;;7.80;99.90;;;;;;5118511;28;20129;-65
2022/05/30 04:01:57;;;;;;;6.25;2.05;;;7.80;99.90;;;;;;5120020;27;20050;-64
2022/05/30 04:04:22;;;;;;;5.68;1.80;;;7.90;99.90;;;;;;5136636;27;20046;-65
2022/05/30 04:06:48;;;;;;;6.65;2.00;;;7.90;99.90;;;;;;5118414;27;20110;-64
2022/05/30 04:09:14;;;;;;;6.60;1.98;;;7.90;99.90;;;;;;5119067;27;20045;-64
2022/05/30 04:11:39;;;;;;;5.28;1.80;;;7.90;99.90;;;;;;5117291;27;20027;-65
2022/05/30 04:14:05;;;;;;;6.63;2.40;;;8.00;99.90;;;;;;5119325;28;20061;-65
2022/05/30 04:16:31;;;;;;;7.50;2.05;;;8.00;99.90;;;;;;5118550;27;20057;-66
2022/05/30 04:18:57;;;;;;;8.07;2.20;;;8.10;99.90;;;;;;5118707;27;20047;-64
2022/05/30 04:21:22;;;;;;;6.32;2.10;;;8.10;99.90;;;;;;5105304;27;20061;-65
2022/05/30 04:23:48;;;;;;;8.75;2.00;;;8.00;99.90;;;;;;5136802;27;20031;-66
2022/05/30 04:26:16;;;;;;;6.82;2.10;;;8.10;99.90;;;;;;5117967;27;20042;-65
2022/05/30 04:28:42;;;;;;;6.50;1.90;;;8.10;99.90;;;;;;5121039;27;20622;-64
2022/05/30 04:31:11;;;;;;;8.32;2.13;;;8.10;99.90;;;;;;5117763;27;20043;-64
2022/05/30 04:33:37;;;;;;;6.65;2.30;;;8.20;99.90;;;;;;5120774;27;20665;-65
2022/05/30 04:36:06;;;;;;;6.13;1.80;;;8.30;99.90;;;;;;5102883;27;20087;-65
2022/05/30 04:38:32;;;;;;;3.92;1.80;;;8.30;99.90;;;;;;5121738;27;20471;-65
2022/05/30 04:40:58;;;;;;;7.25;2.20;;;8.40;99.90;;;;;;5121117;27;20046;-64
2022/05/30 04:43:24;;;;;;;9.60;2.53;;;8.50;99.90;;;;;;5140873;27;20176;-64
2022/05/30 04:46:28;;;;;;;9.20;2.35;;;8.60;99.90;;;;;;5124508;27;20076;-64
2022/05/30 04:48:54;;;;;;;5.55;2.00;;;8.80;99.90;;;;;;5018891;28;20087;-66
2022/05/30 04:51:19;;;;;;;9.38;2.38;;;8.90;99.90;;;;;;5009334;28;20131;-64
2022/05/30 04:53:45;;;;;;;8.57;1.92;;;9.30;99.90;;;;;;5080866;27;20168;-64
2022/05/30 04:56:11;;;;;;;8.57;1.98;;;9.70;99.90;;;;;;5123570;27;20452;-66
2022/05/30 04:58:37;;;;;;;11.88;2.05;;;10.20;99.90;;;;;;5117275;27;20111;-65
2022/05/30 05:01:06;;;;;;;10.95;2.35;;;10.90;99.90;;;;;;5119042;27;20062;-65
2022/05/30 05:03:33;;;;;;;6.47;2.20;;;11.00;99.90;;;;;;5113477;27;20456;-67
2022/05/30 05:06:08;;;;;;;8.50;2.33;;;11.00;99.90;;;;;;5100026;27;20099;-65
2022/05/30 05:08:34;;;;;;;4.40;1.83;;;11.00;99.90;;;;;;5115340;27;20071;-64
2022/05/30 05:11:15;;;;;;;6.35;1.88;;;11.30;99.90;;;;;;5108076;27;20077;-65
2022/05/30 05:13:41;;;;;;;5.95;1.73;;;12.30;99.90;;;;;;5127275;27;20066;-63
2022/05/30 05:16:06;;;;;;;6.80;1.90;;;13.60;99.90;;;;;;5132100;27;20094;-65
2022/05/30 05:18:32;;;;;;;5.15;1.63;;;14.70;99.90;;;;;;5111809;27;20058;-66
2022/05/30 05:20:58;;;;;;;7.30;1.77;;;15.60;99.90;;;;;;5122319;27;20043;-63
2022/05/30 05:23:23;;;;;;;9.85;2.20;;;16.20;99.90;;;;;;5100746;27;20031;-64
2022/05/30 05:25:49;;;;;;;7.15;2.00;;;16.70;99.90;;;;;;5126293;27;20038;-64
2022/05/30 05:28:15;;;;;;;8.45;2.03;;;17.10;99.90;;;;;;5139914;27;20031;-63
2022/05/30 05:30:42;;;;;;;5.95;1.70;;;17.10;99.90;;;;;;5120701;27;20070;-63
2022/05/30 05:33:08;;;;;;;10.30;2.33;;;16.60;99.90;;;;;;5104559;27;20038;-63
2022/05/30 05:35:34;;;;;;;9.38;1.80;;;16.00;99.90;;;;;;5139997;27;20050;-63
2022/05/30 05:38:00;;;;;;;7.78;1.80;;;15.10;99.90;;;;;;5141275;27;20343;-63
2022/05/30 05:40:28;;;;;;;7.20;1.73;;;14.80;99.90;;;;;;5100990;27;20123;-64
2022/05/30 05:42:54;;;;;;;9.25;1.77;;;15.40;99.90;;;;;;5118128;27;20392;-64
2022/05/30 05:45:20;;;;;;;5.07;1.55;;;16.20;99.90;;;;;;5115687;27;20100;-64
2022/05/30 05:47:45;;;;;;;3.58;1.33;;;17.00;99.90;;;;;;5103368;27;20067;-65
2022/05/30 05:50:11;;;;;;;4.20;1.13;;;17.40;99.90;;;;;;5128234;27;20121;-66
2022/05/30 05:52:37;;;;;;;4.63;0.90;;;17.70;99.90;;;;;;5132082;27;20148;-69
2022/05/30 05:55:03;;;;;;;3.65;0.93;;;18.10;99.90;;;;;;5123692;27;20042;-65
2022/05/30 05:57:29;;;;;;;6.95;1.45;;;18.70;99.90;;;;;;5120280;27;20068;-66
2022/05/30 05:59:54;;;;;;;3.92;1.17;;;19.20;99.70;;;;;;5124246;27;20340;-66
2022/05/30 06:02:22;;;;;;;6.22;1.15;;;19.10;99.30;;;;;;5119099;27;20073;-66
2022/05/30 06:04:51;;;;;;;2.33;0.90;;;18.60;99.90;;;;;;5125180;27;20044;-67
2022/05/30 06:07:18;;;;;;;4.65;1.23;;;17.70;99.90;;;;;;5133474;27;20054;-67
2022/05/30 06:09:44;;;;;;;2.42;1.02;;;17.00;99.90;;;;;;5147307;27;20529;-66
2022/05/30 06:12:10;;;;;;;3.42;1.08;;;16.40;99.90;;;;;;5116653;27;20026;-69
2022/05/30 06:14:36;;;;;;;3.17;1.05;;;16.70;99.90;;;;;;5120949;27;20054;-65
2022/05/30 06:17:03;;;;;;;4.53;1.20;;;16.70;99.90;;;;;;5119396;27;20053;-64
2022/05/30 06:19:28;;;;;;;3.80;0.77;;;16.90;99.90;;;;;;5139221;27;20035;-65
2022/05/30 06:21:57;;;;;;;0.68;0.50;;;17.40;99.90;;;;;;5126067;27;20104;-68
2022/05/30 06:24:23;;;;;;;5.13;0.90;;;17.60;99.90;;;;;;5062849;27;20031;-65
2022/05/30 06:26:48;;;;;;;3.75;1.10;;;17.40;99.90;;;;;;5115048;27;20062;-69
2022/05/30 06:29:14;;;;;;;5.45;1.10;;;16.80;99.90;;;;;;5124199;27;20164;-65
2022/05/30 06:31:40;;;;;;;2.75;0.75;;;16.10;99.90;;;;;;5139216;27;20026;-65
2022/05/30 06:34:06;;;;;;;2.55;0.75;;;15.40;99.90;;;;;;5141386;27;20365;-65
2022/05/30 06:36:32;;;;;;;4.45;1.00;;;14.90;99.90;;;;;;5134178;27;20111;-65
2022/05/30 06:38:58;;;;;;;3.22;1.02;;;14.80;99.90;;;;;;5120953;27;20062;-65
2022/05/30 06:41:27;;;;;;;4.72;1.23;;;14.50;99.90;;;;;;5102459;27;20669;-65
2022/05/30 06:43:58;;;;;;;6.40;1.23;;;14.20;99.90;;;;;;5137667;27;20066;-65
2022/05/30 06:46:24;;;;;;;5.88;1.40;;;14.40;99.90;;;;;;5113661;27;20042;-65
2022/05/30 06:48:54;;;;;;;4.13;1.25;;;14.10;99.90;;;;;;5119477;27;20040;-65
2022/05/30 06:51:21;;;;;;;5.57;1.00;;;14.10;99.90;;;;;;5120528;27;20031;-65
2022/05/30 06:53:47;;;;;;;5.18;1.08;;;13.90;99.90;;;;;;5139697;27;20034;-65
2022/05/30 06:56:29;;;;;;;4.10;0.93;;;13.90;99.90;;;;;;5113537;27;20094;-65
2022/05/30 06:58:55;;;;;;;2.90;1.00;;;13.80;99.90;;;;;;5118530;27;20045;-64
2022/05/30 07:01:27;;;;;;;4.68;1.00;;;13.80;99.90;;;;;;5118326;27;20031;-64
2022/05/30 07:03:54;;;;;;;2.78;1.15;;;13.70;99.90;;;;;;5123048;27;20035;-64
2022/05/30 07:06:26;;;;;;;2.60;0.75;;;13.60;99.90;;;;;;5116211;27;20114;-65
2022/05/30 07:08:52;;;;;;;4.80;1.10;;;13.70;99.90;;;;;;5121201;27;20049;-65
2022/05/30 07:11:20;;;;;;;4.03;0.95;;;13.50;99.90;;;;;;5102407;27;20027;-66
2022/05/30 07:13:47;;;;;;;4.05;0.80;;;13.60;99.90;;;;;;5117129;27;20034;-66
2022/05/30 07:16:13;;;;;;;4.35;1.00;;;13.70;99.90;;;;;;5101416;27;20046;-63
2022/05/30 07:18:39;;;;;;;4.28;0.90;;;13.80;99.90;;;;;;5119724;27;20034;-63
2022/05/30 07:21:08;;;;;;;3.80;1.13;;;13.80;99.90;;;;;;5118189;27;20047;-66
2022/05/30 07:23:36;;;;;;;3.80;0.95;;;14.20;99.90;;;;;;5136594;27;20455;-63
2022/05/30 07:26:04;;;;;;;5.53;0.95;;;14.30;99.90;;;;;;5139663;27;20332;-64
2022/05/30 07:28:30;;;;;;;1.15;0.52;;;14.50;99.90;;;;;;5138241;27;20043;-64
2022/05/30 07:31:04;;;;;;;5.55;1.20;;;14.60;99.90;;;;;;5120405;27;20054;-65
2022/05/30 07:33:31;;;;;;;7.72;1.95;;;14.60;99.90;;;;;;5138318;27;20026;-64
2022/05/30 07:35:56;;;;;;;5.07;1.20;;;14.50;99.90;;;;;;5120307;27;20345;-65
2022/05/30 07:38:22;;;;;;;2.92;0.90;;;14.50;99.90;;;;;;5119141;27;20061;-64
2022/05/30 07:40:47;;;;;;;3.22;0.90;;;14.50;99.90;;;;;;5121011;27;20034;-65
2022/05/30 07:43:14;;;;;;;2.78;1.10;;;14.40;99.90;;;;;;5136662;27;20035;-65
2022/05/30 07:45:40;;;;;;;2.88;1.08;;;14.70;99.90;;;;;;5112609;27;20376;-64
2022/05/30 07:48:07;;;;;;;6.07;1.38;;;14.60;99.90;;;;;;5137520;27;20060;-65
2022/05/30 07:50:34;;;;;;;3.40;0.90;;;14.70;99.90;;;;;;5138810;27;20340;-64
2022/05/30 07:53:00;;;;;;;3.08;0.88;;;14.70;99.90;;;;;;5122007;27;20034;-65
2022/05/30 07:55:26;;;;;;;4.75;0.80;;;15.00;99.90;;;;;;5118443;27;20038;-65
2022/05/30 07:57:51;;;;;;;4.30;1.02;;;15.00;99.90;;;;;;5118068;27;20138;-65
2022/05/30 08:00:19;;;;;;;2.03;0.80;;;15.30;99.90;;;;;;5119333;27;20043;-68
2022/05/30 08:02:45;;;;;;;2.90;1.45;;;15.60;99.90;;;;;;5098173;27;20047;-65
2022/05/30 08:05:12;;;;;;;6.50;1.55;;;15.30;99.90;;;;;;5134286;27;20083;-65
2022/05/30 08:07:39;;;;;;;3.95;1.60;;;15.60;99.90;;;;;;5118515;27;20045;-65
2022/05/30 08:10:06;;;;;;;2.92;1.02;;;15.40;99.90;;;;;;5139437;27;20042;-64
2022/05/30 08:12:32;;;;;;;2.40;0.73;;;15.30;99.90;;;;;;5122787;27;20035;-65
2022/05/30 08:14:58;;;;;;;3.70;0.90;;;15.10;99.90;;;;;;5124333;27;20067;-64
2022/05/30 08:17:24;;;;;;;4.35;0.88;;;15.40;99.90;;;;;;5136570;27;20081;-66
2022/05/30 08:19:50;;;;;;;3.08;0.80;;;15.60;99.90;;;;;;5123859;27;20397;-65
2022/05/30 08:22:16;;;;;;;1.88;0.57;;;15.90;99.90;;;;;;5123672;27;20047;-65
2022/05/30 08:24:47;;;;;;;4.43;0.90;;;16.10;99.90;;;;;;5122633;27;20042;-66
2022/05/30 08:27:14;;;;;;;3.47;0.80;;;16.00;99.90;;;;;;5139212;27;20104;-65
2022/05/30 08:29:42;;;;;;;2.88;0.82;;;16.00;99.90;;;;;;5123221;27;20421;-66
2022/05/30 08:32:08;;;;;;;3.08;0.82;;;15.90;99.90;;;;;;5124879;27;20103;-65
2022/05/30 08:34:35;;;;;;;4.82;0.90;;;15.60;99.90;;;;;;5140297;27;20035;-65
2022/05/30 08:37:01;;;;;;;3.85;0.90;;;15.30;99.90;;;;;;5140745;27;20078;-65
2022/05/30 08:42:11;;;;;;;2.55;0.93;;;14.80;99.90;;;;;;5122886;27;20030;-66
2022/05/30 08:44:37;;;;;;;18.50;3.25;;;14.60;99.90;;;;;;5120956;27;20415;-64
2022/05/30 08:47:21;;;;;;;6.60;1.02;;;14.50;99.90;;;;;;5141810;27;20081;-64
2022/05/30 08:49:50;;;;;;;2.83;1.00;;;14.40;99.90;;;;;;5120544;27;20454;-65
2022/05/30 08:52:44;;;;;;;6.43;1.38;;;14.20;99.90;;;;;;5140623;27;20359;-66
2022/05/30 08:55:22;;;;;;;1.98;0.82;;;14.10;99.90;;;;;;5119326;27;20075;-65
2022/05/30 08:58:06;;;;;;;2.80;1.00;;;14.10;99.90;;;;;;5120294;27;20039;-65
2022/05/30 09:00:47;;;;;;;3.08;1.02;;;14.30;99.90;;;;;;5121396;27;20050;-65
2022/05/30 09:03:35;;;;;;;2.17;0.82;;;14.40;99.90;;;;;;5139226;27;20381;-65
2022/05/30 09:06:25;;;;;;;3.38;1.13;;;14.40;99.90;;;;;;5143433;27;20121;-64
2022/05/30 09:09:00;;;;;;;2.33;0.88;;;14.60;99.90;;;;;;5120239;27;20088;-64
2022/05/30 09:11:41;;;;;;;2.33;0.88;;;14.80;99.90;;;;;;5118045;27;20486;-65
2022/05/30 09:14:39;;;;;;;2.92;0.82;;;14.80;99.90;;;;;;5136775;27;20027;-65
2022/05/30 09:17:12;;;;;;;3.28;1.20;;;15.00;99.90;;;;;;5114209;27;20095;-65
2022/05/30 09:19:39;;;;;;;2.00;0.65;;;15.10;99.90;;;;;;5115786;27;20062;-65
2022/05/30 09:22:08;;;;;;;4.65;1.50;;;15.10;99.90;;;;;;5119651;27;20143;-66
2022/05/30 09:24:35;;;;;;;5.90;0.90;;;15.00;99.90;;;;;;5120593;27;20451;-65
2022/05/30 09:27:03;;;;;;;2.88;0.93;;;15.00;99.90;;;;;;5118384;27;20087;-64
2022/05/30 09:29:40;;;;;;;2.55;0.80;;;14.70;99.90;;;;;;5118712;27;20150;-65
2022/05/30 09:32:23;;;;;;;2.63;0.70;;;14.70;99.90;;;;;;5116342;27;20505;-66
2022/05/30 09:34:52;;;;;;;3.60;0.70;;;14.70;99.90;;;;;;5116091;27;20046;-66
2022/05/30 09:37:25;;;;;;;4.82;1.20;;;14.80;99.90;;;;;;5116278;27;20425;-65
2022/05/30 09:39:51;;;;;;;2.33;1.07;;;14.70;99.90;;;;;;5117858;27;20050;-65
2022/05/30 09:42:26;;;;;;;2.78;0.82;;;14.60;99.90;;;;;;5117742;27;20350;-66
2022/05/30 09:44:57;;;;;;;2.15;1.10;;;14.30;99.90;;;;;;5116469;27;20122;-65
2022/05/30 09:47:23;;;;;;;1.30;0.40;;;14.30;99.90;;;;;;5116062;27;20036;-65
2022/05/30 09:49:51;;;;;;;2.17;0.47;;;14.40;99.90;;;;;;5117484;27;20031;-64
2022/05/30 09:52:32;;;;;;;1.77;0.50;;;14.40;99.90;;;;;;5117932;27;20046;-65
2022/05/30 09:54:58;;;;;;;4.85;0.50;;;14.30;99.90;;;;;;5120025;27;20790;-66
2022/05/30 09:57:54;;;;;;;2.83;0.60;;;14.40;99.90;;;;;;5115952;27;20502;-65
2022/05/30 10:00:35;;;;;;;2.70;0.75;;;14.80;99.90;;;;;;5099305;27;20052;-65
2022/05/30 10:03:09;;;;;;;1.58;0.50;;;14.90;99.90;;;;;;5118804;27;20543;-65
2022/05/30 10:05:36;;;;;;;2.33;0.40;;;14.90;99.90;;;;;;5119945;27;20058;-64
2022/05/30 10:08:24;;;;;;;4.03;0.70;;;15.00;99.90;;;;;;5118360;27;20580;-64
2022/05/30 10:10:52;;;;;;;2.65;1.00;;;15.00;99.90;;;;;;5114521;27;20048;-65
2022/05/30 10:13:37;;;;;;;2.08;0.50;;;15.20;99.90;;;;;;5127513;27;20123;-66
2022/05/30 10:16:05;;;;;;;2.95;0.70;;;15.00;99.90;;;;;;5129414;27;20115;-67
2022/05/30 10:18:44;;;;;;;3.70;1.50;;;14.90;99.90;;;;;;5149705;27;20046;-65
2022/05/30 10:28:16;;;;;;;3.85;1.30;;;14.70;99.90;;;;;;5137380;27;20035;-65
2022/05/30 10:31:12;;;;;;;4.75;1.60;;;14.70;99.90;;;;;;5101830;27;20482;-66
2022/05/30 10:33:54;;;;;;;3.05;1.08;;;14.70;99.90;;;;;;5136177;27;20038;-68
2022/05/30 10:36:45;;;;;;;0.98;0.60;;;14.70;99.90;;;;;;5136992;27;20034;-63
2022/05/30 10:39:45;;;;;;;2.30;0.90;;;14.70;99.90;;;;;;5122578;27;20047;-65
2022/05/30 10:42:35;;;;;;;2.13;0.88;;;14.80;99.90;;;;;;5138260;27;20447;-65
2022/05/30 10:45:20;;;;;;;3.05;0.75;;;15.00;99.90;;;;;;5113316;27;20055;-67
2022/05/30 10:47:45;;;;;;;1.75;0.60;;;15.10;99.90;;;;;;5134201;27;20039;-65
2022/05/30 10:50:21;;;;;;;1.33;0.40;;;15.20;99.90;;;;;;5119830;27;20447;-64
2022/05/30 10:52:56;;;;;;;1.80;0.70;;;15.20;99.90;;;;;;5116917;27;20042;-64
2022/05/30 10:55:31;;;;;;;2.33;0.60;;;15.40;99.90;;;;;;5137645;27;20027;-64
2022/05/30 10:58:08;;;;;;;2.33;0.70;;;15.60;99.90;;;;;;5142943;27;20031;-65
2022/05/30 11:00:46;;;;;;;1.90;0.85;;;15.60;99.90;;;;;;5136787;27;20035;-64
2022/05/30 11:03:34;;;;;;;3.72;0.90;;;15.30;99.90;;;;;;5135831;27;20043;-65
2022/05/30 11:06:09;;;;;;;1.85;0.65;;;15.50;99.90;;;;;;5120296;27;20396;-65
2022/05/30 11:08:45;;;;;;;1.17;0.40;;;15.50;99.90;;;;;;5136984;27;20091;-65
2022/05/30 11:11:39;;;;;;;0.60;0.60;;;15.40;99.90;;;;;;5117320;27;20364;-66
2022/05/30 11:14:34;;;;;;;5.18;1.55;;;15.50;99.90;;;;;;5073072;27;20319;-65
2022/05/30 11:17:34;;;;;;;1.42;0.90;;;15.40;99.90;;;;;;5121804;27;20047;-65
2022/05/30 11:20:06;;;;;;;2.25;0.65;;;15.40;99.90;;;;;;5136199;27;20483;-65
2022/05/30 11:22:39;;;;;;;3.08;0.80;;;15.40;99.90;;;;;;5118936;27;20479;-65
2022/05/30 11:25:09;;;;;;;2.92;0.70;;;15.40;99.90;;;;;;5113609;27;20093;-65
2022/05/30 11:27:39;;;;;;;3.17;0.88;;;15.40;99.90;;;;;;5133918;27;20042;-67
2022/05/30 11:30:32;;;;;;;6.20;1.13;;;15.50;99.90;;;;;;5118117;27;20518;-65
2022/05/30 11:33:14;;;;;;;3.33;0.80;;;15.50;99.90;;;;;;5118793;27;20258;-65
2022/05/30 11:36:08;;;;;;;2.33;0.80;;;15.50;99.90;;;;;;5119216;27;20412;-64
2022/05/30 11:39:00;;;;;;;1.63;0.50;;;15.30;99.90;;;;;;5136705;27;20479;-65
2022/05/30 11:41:51;;;;;;;2.45;0.85;;;15.10;99.90;;;;;;5133982;27;20038;-64
2022/05/30 11:44:40;;;;;;;2.67;0.70;;;15.20;99.90;;;;;;5135999;27;20467;-65
2022/05/30 11:47:12;;;;;;;1.67;0.40;;;15.30;99.90;;;;;;5136306;27;20141;-64
2022/05/30 11:50:03;;;;;;;1.77;0.52;;;15.40;99.90;;;;;;5135961;27;20039;-64
2022/05/30 11:52:34;;;;;;;3.97;0.70;;;15.60;99.90;;;;;;5134237;27;20039;-64
2022/05/30 11:55:08;;;;;;;4.30;0.98;;;15.70;99.90;;;;;;5117084;27;20042;-65
2022/05/30 11:57:48;;;;;;;10.10;2.08;;;15.70;99.90;;;;;;5136735;27;20065;-66
2022/05/30 12:00:25;;;;;;;8.43;1.50;;;15.70;99.90;;;;;;5135623;27;20488;-64
2022/05/30 12:02:56;;;;;;;1.98;0.50;;;15.70;99.90;;;;;;5118563;27;20050;-65
2022/05/30 12:05:43;;;;;;;1.35;0.45;;;15.70;99.90;;;;;;5116793;27;20043;-65
2022/05/30 12:08:39;;;;;;;2.90;0.40;;;15.70;99.90;;;;;;5116071;27;20046;-65
2022/05/30 12:11:41;;;;;;;1.50;0.30;;;15.90;99.90;;;;;;5115301;27;20598;-65
2022/05/30 12:14:38;;;;;;;3.00;0.73;;;15.90;99.90;;;;;;5135216;27;20429;-65
2022/05/30 12:17:28;;;;;;;1.60;0.60;;;16.00;99.90;;;;;;5118873;28;20486;-65
2022/05/30 12:25:54;;;;;;;2.63;0.70;;;15.90;99.90;;;;;;5134847;27;20049;-64
2022/05/30 12:28:30;;;;;;;8.27;1.50;;;16.00;99.70;;;;;;5121819;27;20038;-64
2022/05/30 12:31:03;;;;;;;7.40;1.30;;;16.10;99.80;;;;;;5142913;27;20074;-65
2022/05/30 12:33:29;;;;;;;2.25;0.50;;;16.10;99.00;;;;;;5140114;27;20046;-65
2022/05/30 12:36:10;;;;;;;2.45;0.55;;;16.00;99.40;;;;;;5119703;28;20043;-66
2022/05/30 12:38:58;;;;;;;1.63;0.77;;;16.00;99.90;;;;;;5137177;27;20062;-65
2022/05/30 12:41:31;;;;;;;2.05;0.82;;;15.80;99.70;;;;;;5117413;27;20039;-64
2022/05/30 12:43:58;;;;;;;0.43;0.23;;;15.70;99.90;;;;;;5140330;27;20035;-65
2022/05/30 12:46:30;;;;;;;1.17;0.45;;;15.80;99.90;;;;;;5115978;28;20382;-64
2022/05/30 12:48:55;;;;;;;1.08;0.40;;;15.60;99.90;;;;;;5142797;27;20027;-66
2022/05/30 12:51:41;;;;;;;1.85;0.60;;;15.80;99.90;;;;;;5140359;27;20359;-65
2022/05/30 12:54:07;;;;;;;1.60;0.35;;;15.90;99.90;;;;;;5136796;27;20090;-64
2022/05/30 12:56:39;;;;;;;2.15;0.40;;;15.90;99.90;;;;;;5121476;27;20043;-64
2022/05/30 12:59:15;;;;;;;1.08;0.45;;;15.90;99.60;;;;;;5119922;27;20051;-65
2022/05/30 13:01:44;;;;;;;1.13;0.45;;;16.00;99.80;;;;;;5122422;27;20199;-65
2022/05/30 13:04:15;;;;;;;9.07;1.35;;;16.00;99.90;;;;;;5144953;27;20046;-65
2022/05/30 13:06:54;;;;;;;1.65;0.50;;;16.10;99.90;;;;;;5119858;27;20039;-65
2022/05/30 13:09:23;;;;;;;0.50;0.50;;;16.20;99.80;;;;;;5122884;27;20045;-65
2022/05/30 13:12:09;;;;;;;1.60;0.60;;;16.30;99.40;;;;;;5145666;27;20112;-65
2022/05/30 13:15:01;;;;;;;2.03;0.52;;;16.50;99.90;;;;;;5082501;27;20108;-64
2022/05/30 13:17:53;;;;;;;56.75;6.72;;;16.60;99.70;;;;;;5141026;27;20600;-66
2022/05/30 13:20:28;;;;;;;2.40;0.68;;;16.80;99.70;;;;;;5121545;27;20046;-65
2022/05/30 13:22:58;;;;;;;2.17;0.30;;;16.80;99.40;;;;;;5121106;27;20031;-64
2022/05/30 13:25:33;;;;;;;2.83;0.80;;;16.90;99.50;;;;;;5119386;27;20039;-66
2022/05/30 13:28:14;;;;;;;1.50;0.60;;;17.20;99.80;;;;;;5124592;27;20042;-65
2022/05/30 13:30:41;;;;;;;1.88;0.57;;;17.30;99.40;;;;;;5145979;27;20130;-65
2022/05/30 13:33:35;;;;;;;1.67;0.60;;;17.40;99.10;;;;;;5123003;27;20043;-65